sensor_id;sensor_type;location;lat;lon;timestamp;P1;durP1;ratioP1;P2;durP2;ratioP2
78197;SDS011;67472;51.554;7.812;2023-03-14T00:01:31;3.85;;;1.45;;
78197;SDS011;67472;51.554;7.812;2023-03-14T00:04:17;8.05;;;1.40;;
78197;SDS011;67472;51.554;7.812;2023-03-14T00:07:02;4.95;;;1.45;;
78197;SDS011;67472;51.554;7.812;2023-03-14T00:09:48;4.97;;;1.50;;
78197;SDS011;67472;51.554;7.812;2023-03-14T00:12:32;4.78;;;1.65;;
78197;SDS011;67472;51.554;7.812;2023-03-14T00:15:17;10.30;;;1.55;;
78197;SDS011;67472;51.554;7.812;2023-03-14T00:21:12;6.68;;;1.80;;
78197;SDS011;67472;51.554;7.812;2023-03-14T00:27:06;10.23;;;2.03;;
78197;SDS011;67472;51.554;7.812;2023-03-14T00:29:52;4.65;;;1.40;;
78197;SDS011;67472;51.554;7.812;2023-03-14T00:32:36;2.95;;;1.20;;
78197;SDS011;67472;51.554;7.812;2023-03-14T00:35:22;9.30;;;1.67;;
78197;SDS011;67472;51.554;7.812;2023-03-14T00:38:07;5.28;;;1.40;;
78197;SDS011;67472;51.554;7.812;2023-03-14T00:40:54;5.68;;;1.33;;
78197;SDS011;67472;51.554;7.812;2023-03-14T00:43:41;4.32;;;1.20;;
78197;SDS011;67472;51.554;7.812;2023-03-14T00:46:27;3.30;;;1.50;;
78197;SDS011;67472;51.554;7.812;2023-03-14T00:49:12;5.70;;;1.73;;
78197;SDS011;67472;51.554;7.812;2023-03-14T00:51:56;4.07;;;1.33;;
78197;SDS011;67472;51.554;7.812;2023-03-14T00:54:41;5.50;;;2.40;;
78197;SDS011;67472;51.554;7.812;2023-03-14T00:57:26;6.93;;;1.38;;
78197;SDS011;67472;51.554;7.812;2023-03-14T01:00:10;2.70;;;1.42;;
78197;SDS011;67472;51.554;7.812;2023-03-14T01:02:56;7.75;;;1.40;;
78197;SDS011;67472;51.554;7.812;2023-03-14T01:05:41;4.15;;;1.23;;
78197;SDS011;67472;51.554;7.812;2023-03-14T01:08:26;5.68;;;1.60;;
78197;SDS011;67472;51.554;7.812;2023-03-14T01:11:13;5.10;;;1.70;;
78197;SDS011;67472;51.554;7.812;2023-03-14T01:14:01;3.53;;;1.35;;
78197;SDS011;67472;51.554;7.812;2023-03-14T01:16:47;5.82;;;1.70;;
78197;SDS011;67472;51.554;7.812;2023-03-14T01:19:31;4.43;;;1.45;;
78197;SDS011;67472;51.554;7.812;2023-03-14T01:22:17;3.95;;;1.35;;
78197;SDS011;67472;51.554;7.812;2023-03-14T01:25:01;6.60;;;1.50;;
78197;SDS011;67472;51.554;7.812;2023-03-14T01:27:46;3.30;;;1.42;;
78197;SDS011;67472;51.554;7.812;2023-03-14T01:30:31;2.72;;;1.20;;
78197;SDS011;67472;51.554;7.812;2023-03-14T01:33:16;4.90;;;1.45;;
78197;SDS011;67472;51.554;7.812;2023-03-14T01:36:02;7.38;;;1.40;;
78197;SDS011;67472;51.554;7.812;2023-03-14T01:38:48;5.30;;;1.60;;
78197;SDS011;67472;51.554;7.812;2023-03-14T01:41:35;4.75;;;1.60;;
78197;SDS011;67472;51.554;7.812;2023-03-14T01:44:19;7.18;;;1.50;;
78197;SDS011;67472;51.554;7.812;2023-03-14T01:47:03;9.52;;;1.98;;
78197;SDS011;67472;51.554;7.812;2023-03-14T01:50:02;12.95;;;1.80;;
78197;SDS011;67472;51.554;7.812;2023-03-14T01:52:52;4.80;;;1.42;;
78197;SDS011;67472;51.554;7.812;2023-03-14T01:55:37;6.65;;;1.23;;
78197;SDS011;67472;51.554;7.812;2023-03-14T01:58:21;4.80;;;1.00;;
78197;SDS011;67472;51.554;7.812;2023-03-14T02:01:09;2.40;;;0.70;;
78197;SDS011;67472;51.554;7.812;2023-03-14T02:03:55;6.25;;;1.05;;
78197;SDS011;67472;51.554;7.812;2023-03-14T02:06:55;2.25;;;1.00;;
78197;SDS011;67472;51.554;7.812;2023-03-14T02:09:48;3.47;;;1.25;;
78197;SDS011;67472;51.554;7.812;2023-03-14T02:12:39;2.00;;;1.10;;
78197;SDS011;67472;51.554;7.812;2023-03-14T02:15:47;2.53;;;0.70;;
78197;SDS011;67472;51.554;7.812;2023-03-14T02:18:55;3.20;;;1.10;;
78197;SDS011;67472;51.554;7.812;2023-03-14T02:22:04;3.65;;;0.90;;
78197;SDS011;67472;51.554;7.812;2023-03-14T02:25:15;5.53;;;1.48;;
78197;SDS011;67472;51.554;7.812;2023-03-14T02:28:18;2.33;;;0.85;;
78197;SDS011;67472;51.554;7.812;2023-03-14T02:31:05;1.60;;;0.88;;
78197;SDS011;67472;51.554;7.812;2023-03-14T02:33:52;1.85;;;1.00;;
78197;SDS011;67472;51.554;7.812;2023-03-14T02:36:37;4.05;;;1.20;;
78197;SDS011;67472;51.554;7.812;2023-03-14T02:39:24;1.58;;;0.90;;
78197;SDS011;67472;51.554;7.812;2023-03-14T02:42:17;4.28;;;1.65;;
78197;SDS011;67472;51.554;7.812;2023-03-14T02:48:00;6.45;;;0.98;;
78197;SDS011;67472;51.554;7.812;2023-03-14T02:50:57;2.92;;;0.90;;
78197;SDS011;67472;51.554;7.812;2023-03-14T02:53:45;0.98;;;0.73;;
78197;SDS011;67472;51.554;7.812;2023-03-14T02:56:33;2.50;;;1.20;;
78197;SDS011;67472;51.554;7.812;2023-03-14T02:59:19;3.35;;;1.27;;
78197;SDS011;67472;51.554;7.812;2023-03-14T03:02:08;3.38;;;1.27;;
78197;SDS011;67472;51.554;7.812;2023-03-14T03:04:52;6.22;;;1.00;;
78197;SDS011;67472;51.554;7.812;2023-03-14T03:07:37;5.38;;;1.23;;
78197;SDS011;67472;51.554;7.812;2023-03-14T03:10:22;5.30;;;1.20;;
78197;SDS011;67472;51.554;7.812;2023-03-14T03:13:08;5.63;;;1.38;;
78197;SDS011;67472;51.554;7.812;2023-03-14T03:15:56;4.75;;;1.33;;
78197;SDS011;67472;51.554;7.812;2023-03-14T03:18:40;5.18;;;1.48;;
78197;SDS011;67472;51.554;7.812;2023-03-14T03:21:25;3.20;;;1.08;;
78197;SDS011;67472;51.554;7.812;2023-03-14T03:24:10;11.98;;;1.98;;
78197;SDS011;67472;51.554;7.812;2023-03-14T03:26:55;2.78;;;1.08;;
78197;SDS011;67472;51.554;7.812;2023-03-14T03:29:40;4.38;;;1.65;;
78197;SDS011;67472;51.554;7.812;2023-03-14T03:32:25;3.60;;;1.20;;
78197;SDS011;67472;51.554;7.812;2023-03-14T03:35:10;7.57;;;1.42;;
78197;SDS011;67472;51.554;7.812;2023-03-14T03:37:56;2.70;;;0.93;;
78197;SDS011;67472;51.554;7.812;2023-03-14T03:40:41;3.85;;;1.48;;
78197;SDS011;67472;51.554;7.812;2023-03-14T03:43:28;3.60;;;1.25;;
78197;SDS011;67472;51.554;7.812;2023-03-14T03:46:14;5.20;;;1.30;;
78197;SDS011;67472;51.554;7.812;2023-03-14T03:48:59;2.08;;;1.88;;
78197;SDS011;67472;51.554;7.812;2023-03-14T03:51:46;4.35;;;1.40;;
78197;SDS011;67472;51.554;7.812;2023-03-14T03:54:31;7.28;;;1.33;;
78197;SDS011;67472;51.554;7.812;2023-03-14T03:57:17;4.13;;;1.00;;
78197;SDS011;67472;51.554;7.812;2023-03-14T04:00:02;1.85;;;0.90;;
78197;SDS011;67472;51.554;7.812;2023-03-14T04:02:58;5.50;;;1.77;;
78197;SDS011;67472;51.554;7.812;2023-03-14T04:05:43;3.63;;;1.30;;
78197;SDS011;67472;51.554;7.812;2023-03-14T04:08:28;5.32;;;1.25;;
78197;SDS011;67472;51.554;7.812;2023-03-14T04:11:13;5.97;;;1.45;;
78197;SDS011;67472;51.554;7.812;2023-03-14T04:14:10;3.20;;;1.30;;
78197;SDS011;67472;51.554;7.812;2023-03-14T04:17:03;4.50;;;1.60;;
78197;SDS011;67472;51.554;7.812;2023-03-14T04:19:48;3.92;;;1.08;;
78197;SDS011;67472;51.554;7.812;2023-03-14T04:22:37;7.68;;;1.58;;
78197;SDS011;67472;51.554;7.812;2023-03-14T04:25:23;5.10;;;1.25;;
78197;SDS011;67472;51.554;7.812;2023-03-14T04:28:13;5.18;;;2.00;;
78197;SDS011;67472;51.554;7.812;2023-03-14T04:30:58;3.72;;;1.60;;
78197;SDS011;67472;51.554;7.812;2023-03-14T04:33:44;4.75;;;1.50;;
78197;SDS011;67472;51.554;7.812;2023-03-14T04:36:30;6.05;;;1.50;;
78197;SDS011;67472;51.554;7.812;2023-03-14T04:39:20;6.45;;;1.02;;
78197;SDS011;67472;51.554;7.812;2023-03-14T04:42:23;4.38;;;1.25;;
78197;SDS011;67472;51.554;7.812;2023-03-14T04:45:07;6.80;;;1.00;;
78197;SDS011;67472;51.554;7.812;2023-03-14T04:47:53;3.63;;;0.93;;
78197;SDS011;67472;51.554;7.812;2023-03-14T04:50:38;2.63;;;0.95;;
78197;SDS011;67472;51.554;7.812;2023-03-14T04:53:23;2.28;;;0.95;;
78197;SDS011;67472;51.554;7.812;2023-03-14T04:56:12;2.83;;;0.60;;
78197;SDS011;67472;51.554;7.812;2023-03-14T04:58:58;1.98;;;1.13;;
78197;SDS011;67472;51.554;7.812;2023-03-14T05:01:43;1.63;;;0.73;;
78197;SDS011;67472;51.554;7.812;2023-03-14T05:04:47;3.55;;;1.15;;
78197;SDS011;67472;51.554;7.812;2023-03-14T05:07:41;1.80;;;1.10;;
78197;SDS011;67472;51.554;7.812;2023-03-14T05:10:36;5.53;;;1.83;;
78197;SDS011;67472;51.554;7.812;2023-03-14T05:13:42;3.95;;;1.30;;
78197;SDS011;67472;51.554;7.812;2023-03-14T05:16:58;2.97;;;1.27;;
78197;SDS011;67472;51.554;7.812;2023-03-14T05:20:06;4.72;;;1.40;;
78197;SDS011;67472;51.554;7.812;2023-03-14T05:23:31;4.10;;;1.27;;
78197;SDS011;67472;51.554;7.812;2023-03-14T05:26:28;5.90;;;2.45;;
78197;SDS011;67472;51.554;7.812;2023-03-14T05:29:35;7.97;;;2.70;;
78197;SDS011;67472;51.554;7.812;2023-03-14T05:32:35;4.43;;;1.42;;
78197;SDS011;67472;51.554;7.812;2023-03-14T05:35:35;4.65;;;1.23;;
78197;SDS011;67472;51.554;7.812;2023-03-14T05:38:36;2.90;;;1.38;;
78197;SDS011;67472;51.554;7.812;2023-03-14T05:41:33;7.03;;;1.30;;
78197;SDS011;67472;51.554;7.812;2023-03-14T05:44:36;1.83;;;1.10;;
78197;SDS011;67472;51.554;7.812;2023-03-14T05:47:40;5.57;;;2.00;;
78197;SDS011;67472;51.554;7.812;2023-03-14T05:50:43;3.70;;;1.10;;
78197;SDS011;67472;51.554;7.812;2023-03-14T05:53:42;3.95;;;1.60;;
78197;SDS011;67472;51.554;7.812;2023-03-14T05:56:35;4.40;;;1.70;;
78197;SDS011;67472;51.554;7.812;2023-03-14T05:59:28;5.78;;;1.90;;
78197;SDS011;67472;51.554;7.812;2023-03-14T06:02:16;3.58;;;1.98;;
78197;SDS011;67472;51.554;7.812;2023-03-14T06:05:13;4.32;;;1.98;;
78197;SDS011;67472;51.554;7.812;2023-03-14T06:07:58;4.63;;;1.67;;
78197;SDS011;67472;51.554;7.812;2023-03-14T06:10:44;2.45;;;1.73;;
78197;SDS011;67472;51.554;7.812;2023-03-14T06:13:30;3.30;;;1.80;;
78197;SDS011;67472;51.554;7.812;2023-03-14T06:16:14;4.82;;;2.42;;
78197;SDS011;67472;51.554;7.812;2023-03-14T06:18:59;5.30;;;2.50;;
78197;SDS011;67472;51.554;7.812;2023-03-14T06:21:43;7.53;;;2.47;;
78197;SDS011;67472;51.554;7.812;2023-03-14T06:24:28;7.75;;;2.65;;
78197;SDS011;67472;51.554;7.812;2023-03-14T06:27:17;4.43;;;2.20;;
78197;SDS011;67472;51.554;7.812;2023-03-14T06:30:02;7.28;;;1.85;;
78197;SDS011;67472;51.554;7.812;2023-03-14T06:32:49;2.33;;;1.45;;
78197;SDS011;67472;51.554;7.812;2023-03-14T06:35:35;4.38;;;1.15;;
78197;SDS011;67472;51.554;7.812;2023-03-14T06:38:20;3.28;;;1.05;;
78197;SDS011;67472;51.554;7.812;2023-03-14T06:41:06;5.25;;;0.93;;
78197;SDS011;67472;51.554;7.812;2023-03-14T06:43:56;2.28;;;0.80;;
78197;SDS011;67472;51.554;7.812;2023-03-14T06:46:50;2.63;;;1.10;;
78197;SDS011;67472;51.554;7.812;2023-03-14T06:49:34;1.85;;;0.77;;
78197;SDS011;67472;51.554;7.812;2023-03-14T06:52:20;2.80;;;0.82;;
78197;SDS011;67472;51.554;7.812;2023-03-14T06:55:04;2.10;;;0.80;;
78197;SDS011;67472;51.554;7.812;2023-03-14T06:57:50;0.82;;;0.80;;
78197;SDS011;67472;51.554;7.812;2023-03-14T07:00:35;1.30;;;0.70;;
78197;SDS011;67472;51.554;7.812;2023-03-14T07:03:20;1.13;;;0.80;;
78197;SDS011;67472;51.554;7.812;2023-03-14T07:06:07;2.22;;;0.85;;
78197;SDS011;67472;51.554;7.812;2023-03-14T07:08:52;0.70;;;0.70;;
78197;SDS011;67472;51.554;7.812;2023-03-14T07:11:37;1.45;;;0.90;;
78197;SDS011;67472;51.554;7.812;2023-03-14T07:14:23;0.68;;;0.60;;
78197;SDS011;67472;51.554;7.812;2023-03-14T07:17:08;0.38;;;0.35;;
78197;SDS011;67472;51.554;7.812;2023-03-14T07:19:54;2.70;;;0.85;;
78197;SDS011;67472;51.554;7.812;2023-03-14T07:22:39;1.27;;;0.60;;
78197;SDS011;67472;51.554;7.812;2023-03-14T07:25:24;0.93;;;0.73;;
78197;SDS011;67472;51.554;7.812;2023-03-14T07:28:08;0.75;;;0.75;;
78197;SDS011;67472;51.554;7.812;2023-03-14T07:30:55;0.40;;;0.40;;
78197;SDS011;67472;51.554;7.812;2023-03-14T07:33:45;0.50;;;0.50;;
78197;SDS011;67472;51.554;7.812;2023-03-14T07:36:29;0.50;;;0.50;;
78197;SDS011;67472;51.554;7.812;2023-03-14T07:39:14;0.40;;;0.40;;
78197;SDS011;67472;51.554;7.812;2023-03-14T07:42:22;0.73;;;0.73;;
78197;SDS011;67472;51.554;7.812;2023-03-14T07:45:12;0.85;;;0.60;;
78197;SDS011;67472;51.554;7.812;2023-03-14T07:47:58;0.82;;;0.50;;
78197;SDS011;67472;51.554;7.812;2023-03-14T07:50:42;0.68;;;0.60;;
78197;SDS011;67472;51.554;7.812;2023-03-14T07:53:40;0.73;;;0.50;;
78197;SDS011;67472;51.554;7.812;2023-03-14T07:56:28;2.38;;;0.50;;
78197;SDS011;67472;51.554;7.812;2023-03-14T07:59:12;1.05;;;0.43;;
78197;SDS011;67472;51.554;7.812;2023-03-14T08:01:56;0.63;;;0.47;;
78197;SDS011;67472;51.554;7.812;2023-03-14T08:04:42;1.00;;;0.35;;
78197;SDS011;67472;51.554;7.812;2023-03-14T08:07:36;0.70;;;0.70;;
78197;SDS011;67472;51.554;7.812;2023-03-14T08:10:22;1.35;;;0.65;;
78197;SDS011;67472;51.554;7.812;2023-03-14T08:13:14;0.63;;;0.63;;
78197;SDS011;67472;51.554;7.812;2023-03-14T08:15:59;6.22;;;0.75;;
78197;SDS011;67472;51.554;7.812;2023-03-14T08:18:44;2.00;;;0.68;;
78197;SDS011;67472;51.554;7.812;2023-03-14T08:21:30;0.52;;;0.52;;
78197;SDS011;67472;51.554;7.812;2023-03-14T08:24:16;0.60;;;0.60;;
78197;SDS011;67472;51.554;7.812;2023-03-14T08:27:00;0.40;;;0.40;;
78197;SDS011;67472;51.554;7.812;2023-03-14T08:29:45;2.35;;;0.98;;
78197;SDS011;67472;51.554;7.812;2023-03-14T08:32:30;0.60;;;0.60;;
78197;SDS011;67472;51.554;7.812;2023-03-14T08:35:14;0.40;;;0.40;;
78197;SDS011;67472;51.554;7.812;2023-03-14T08:38:03;0.63;;;0.63;;
78197;SDS011;67472;51.554;7.812;2023-03-14T08:40:55;1.58;;;0.88;;
78197;SDS011;67472;51.554;7.812;2023-03-14T08:43:43;0.80;;;0.80;;
78197;SDS011;67472;51.554;7.812;2023-03-14T08:46:28;1.05;;;0.95;;
78197;SDS011;67472;51.554;7.812;2023-03-14T08:49:15;2.58;;;0.70;;
78197;SDS011;67472;51.554;7.812;2023-03-14T08:52:01;0.68;;;0.68;;
78197;SDS011;67472;51.554;7.812;2023-03-14T08:54:47;0.80;;;0.80;;
78197;SDS011;67472;51.554;7.812;2023-03-14T08:57:31;1.08;;;1.05;;
78197;SDS011;67472;51.554;7.812;2023-03-14T09:00:17;2.45;;;1.10;;
78197;SDS011;67472;51.554;7.812;2023-03-14T09:03:03;1.48;;;1.10;;
78197;SDS011;67472;51.554;7.812;2023-03-14T09:05:49;2.63;;;1.15;;
78197;SDS011;67472;51.554;7.812;2023-03-14T09:08:35;1.10;;;1.00;;
78197;SDS011;67472;51.554;7.812;2023-03-14T09:11:19;1.35;;;1.20;;
78197;SDS011;67472;51.554;7.812;2023-03-14T09:14:05;1.10;;;1.10;;
78197;SDS011;67472;51.554;7.812;2023-03-14T09:16:50;1.83;;;1.40;;
78197;SDS011;67472;51.554;7.812;2023-03-14T09:19:34;1.30;;;1.20;;
78197;SDS011;67472;51.554;7.812;2023-03-14T09:22:20;1.73;;;1.30;;
78197;SDS011;67472;51.554;7.812;2023-03-14T09:25:05;1.42;;;1.17;;
78197;SDS011;67472;51.554;7.812;2023-03-14T09:27:51;1.95;;;1.85;;
78197;SDS011;67472;51.554;7.812;2023-03-14T09:30:36;2.47;;;1.30;;
78197;SDS011;67472;51.554;7.812;2023-03-14T09:33:20;1.40;;;1.30;;
78197;SDS011;67472;51.554;7.812;2023-03-14T09:36:05;2.25;;;1.60;;
78197;SDS011;67472;51.554;7.812;2023-03-14T09:38:50;1.88;;;1.23;;
78197;SDS011;67472;51.554;7.812;2023-03-14T09:41:37;3.33;;;1.75;;
78197;SDS011;67472;51.554;7.812;2023-03-14T09:44:25;1.63;;;1.52;;
78197;SDS011;67472;51.554;7.812;2023-03-14T09:47:12;2.08;;;1.52;;
78197;SDS011;67472;51.554;7.812;2023-03-14T09:49:59;2.38;;;1.35;;
78197;SDS011;67472;51.554;7.812;2023-03-14T09:52:48;4.10;;;1.48;;
78197;SDS011;67472;51.554;7.812;2023-03-14T09:55:36;1.63;;;1.50;;
78197;SDS011;67472;51.554;7.812;2023-03-14T09:58:21;5.20;;;1.85;;
78197;SDS011;67472;51.554;7.812;2023-03-14T10:01:07;1.50;;;1.40;;
78197;SDS011;67472;51.554;7.812;2023-03-14T10:03:59;0.93;;;0.88;;
78197;SDS011;67472;51.554;7.812;2023-03-14T10:06:49;0.82;;;0.82;;
78197;SDS011;67472;51.554;7.812;2023-03-14T10:09:33;0.95;;;0.90;;
78197;SDS011;67472;51.554;7.812;2023-03-14T10:12:22;1.20;;;0.63;;
78197;SDS011;67472;51.554;7.812;2023-03-14T10:15:22;0.70;;;0.70;;
78197;SDS011;67472;51.554;7.812;2023-03-14T10:18:13;0.38;;;0.38;;
78197;SDS011;67472;51.554;7.812;2023-03-14T10:23:50;0.68;;;0.68;;
78197;SDS011;67472;51.554;7.812;2023-03-14T10:26:36;0.63;;;0.63;;
78197;SDS011;67472;51.554;7.812;2023-03-14T10:29:22;0.80;;;0.80;;
78197;SDS011;67472;51.554;7.812;2023-03-14T10:32:10;1.10;;;1.00;;
78197;SDS011;67472;51.554;7.812;2023-03-14T10:38:10;1.70;;;1.00;;
78197;SDS011;67472;51.554;7.812;2023-03-14T10:40:57;1.17;;;1.13;;
78197;SDS011;67472;51.554;7.812;2023-03-14T10:43:44;0.95;;;0.90;;
78197;SDS011;67472;51.554;7.812;2023-03-14T10:46:30;1.42;;;1.33;;
78197;SDS011;67472;51.554;7.812;2023-03-14T10:49:36;0.70;;;0.70;;
78197;SDS011;67472;51.554;7.812;2023-03-14T10:52:23;0.40;;;0.40;;
78197;SDS011;67472;51.554;7.812;2023-03-14T10:55:10;0.90;;;0.50;;
78197;SDS011;67472;51.554;7.812;2023-03-14T10:57:57;0.50;;;0.50;;
78197;SDS011;67472;51.554;7.812;2023-03-14T11:00:42;0.40;;;0.40;;
78197;SDS011;67472;51.554;7.812;2023-03-14T11:03:28;0.82;;;0.50;;
78197;SDS011;67472;51.554;7.812;2023-03-14T11:09:15;0.60;;;0.50;;
78197;SDS011;67472;51.554;7.812;2023-03-14T11:12:05;1.02;;;0.65;;
78197;SDS011;67472;51.554;7.812;2023-03-14T11:15:43;1.08;;;0.70;;
78197;SDS011;67472;51.554;7.812;2023-03-14T11:27:22;0.75;;;0.55;;
78197;SDS011;67472;51.554;7.812;2023-03-14T11:30:30;0.75;;;0.60;;
78197;SDS011;67472;51.554;7.812;2023-03-14T11:39:24;0.50;;;0.50;;
78197;SDS011;67472;51.554;7.812;2023-03-14T11:42:15;1.20;;;1.10;;
78197;SDS011;67472;51.554;7.812;2023-03-14T11:45:01;0.70;;;0.70;;
78197;SDS011;67472;51.554;7.812;2023-03-14T11:47:49;2.25;;;0.90;;
78197;SDS011;67472;51.554;7.812;2023-03-14T11:50:41;2.50;;;0.77;;
78197;SDS011;67472;51.554;7.812;2023-03-14T11:53:40;1.67;;;1.25;;
78197;SDS011;67472;51.554;7.812;2023-03-14T11:59:27;2.33;;;1.83;;
78197;SDS011;67472;51.554;7.812;2023-03-14T12:10:55;1.80;;;1.70;;
78197;SDS011;67472;51.554;7.812;2023-03-14T12:13:49;2.50;;;1.73;;
78197;SDS011;67472;51.554;7.812;2023-03-14T12:16:36;3.47;;;2.03;;
78197;SDS011;67472;51.554;7.812;2023-03-14T12:22:08;3.45;;;2.40;;
78197;SDS011;67472;51.554;7.812;2023-03-14T12:24:59;3.08;;;1.88;;
78197;SDS011;67472;51.554;7.812;2023-03-14T12:30:53;7.95;;;2.05;;
78197;SDS011;67472;51.554;7.812;2023-03-14T12:33:38;1.70;;;1.60;;
78197;SDS011;67472;51.554;7.812;2023-03-14T12:36:44;4.38;;;1.90;;
78197;SDS011;67472;51.554;7.812;2023-03-14T12:42:57;10.23;;;2.35;;
78197;SDS011;67472;51.554;7.812;2023-03-14T12:45:43;3.20;;;1.75;;
78197;SDS011;67472;51.554;7.812;2023-03-14T12:51:53;2.63;;;1.20;;
78197;SDS011;67472;51.554;7.812;2023-03-14T12:54:45;4.82;;;1.52;;
78197;SDS011;67472;51.554;7.812;2023-03-14T13:00:32;5.07;;;1.58;;
78197;SDS011;67472;51.554;7.812;2023-03-14T13:03:19;3.30;;;1.30;;
78197;SDS011;67472;51.554;7.812;2023-03-14T13:06:11;7.68;;;1.40;;
78197;SDS011;67472;51.554;7.812;2023-03-14T13:08:56;4.28;;;1.45;;
78197;SDS011;67472;51.554;7.812;2023-03-14T13:11:40;6.93;;;1.10;;
78197;SDS011;67472;51.554;7.812;2023-03-14T13:14:30;6.68;;;1.10;;
78197;SDS011;67472;51.554;7.812;2023-03-14T13:17:18;1.73;;;0.98;;
78197;SDS011;67472;51.554;7.812;2023-03-14T13:20:12;2.25;;;1.30;;
78197;SDS011;67472;51.554;7.812;2023-03-14T13:23:02;4.88;;;1.30;;
78197;SDS011;67472;51.554;7.812;2023-03-14T13:25:47;2.25;;;1.10;;
78197;SDS011;67472;51.554;7.812;2023-03-14T13:28:31;4.13;;;1.40;;
78197;SDS011;67472;51.554;7.812;2023-03-14T13:31:25;12.65;;;2.35;;
78197;SDS011;67472;51.554;7.812;2023-03-14T13:34:10;14.65;;;3.15;;
78197;SDS011;67472;51.554;7.812;2023-03-14T13:36:57;15.70;;;2.22;;
78197;SDS011;67472;51.554;7.812;2023-03-14T13:39:42;14.88;;;2.78;;
78197;SDS011;67472;51.554;7.812;2023-03-14T13:42:28;15.32;;;4.05;;
78197;SDS011;67472;51.554;7.812;2023-03-14T13:45:15;9.27;;;2.38;;
78197;SDS011;67472;51.554;7.812;2023-03-14T13:47:59;10.13;;;2.53;;
78197;SDS011;67472;51.554;7.812;2023-03-14T13:51:06;15.23;;;2.97;;
78197;SDS011;67472;51.554;7.812;2023-03-14T13:53:54;6.82;;;1.65;;
78197;SDS011;67472;51.554;7.812;2023-03-14T13:56:40;6.90;;;1.77;;
78197;SDS011;67472;51.554;7.812;2023-03-14T13:59:26;11.40;;;1.80;;
78197;SDS011;67472;51.554;7.812;2023-03-14T14:02:18;8.82;;;2.25;;
78197;SDS011;67472;51.554;7.812;2023-03-14T14:05:03;7.75;;;2.67;;
78197;SDS011;67472;51.554;7.812;2023-03-14T14:07:48;10.30;;;2.35;;
78197;SDS011;67472;51.554;7.812;2023-03-14T14:10:36;11.20;;;2.60;;
78197;SDS011;67472;51.554;7.812;2023-03-14T14:13:21;13.30;;;3.03;;
78197;SDS011;67472;51.554;7.812;2023-03-14T14:16:09;11.05;;;2.30;;
78197;SDS011;67472;51.554;7.812;2023-03-14T14:18:54;14.38;;;2.70;;
78197;SDS011;67472;51.554;7.812;2023-03-14T14:21:40;13.50;;;2.58;;
78197;SDS011;67472;51.554;7.812;2023-03-14T14:24:28;10.00;;;2.30;;
78197;SDS011;67472;51.554;7.812;2023-03-14T14:27:16;10.95;;;3.05;;
78197;SDS011;67472;51.554;7.812;2023-03-14T14:33:11;14.15;;;2.88;;
78197;SDS011;67472;51.554;7.812;2023-03-14T14:36:02;10.23;;;2.78;;
78197;SDS011;67472;51.554;7.812;2023-03-14T14:38:50;13.38;;;3.92;;
78197;SDS011;67472;51.554;7.812;2023-03-14T14:41:39;13.73;;;3.38;;
78197;SDS011;67472;51.554;7.812;2023-03-14T14:44:29;9.60;;;2.00;;
78197;SDS011;67472;51.554;7.812;2023-03-14T14:47:21;19.23;;;3.53;;
78197;SDS011;67472;51.554;7.812;2023-03-14T14:50:20;7.32;;;2.35;;
78197;SDS011;67472;51.554;7.812;2023-03-14T14:56:17;12.48;;;3.17;;
78197;SDS011;67472;51.554;7.812;2023-03-14T14:59:25;8.70;;;2.70;;
78197;SDS011;67472;51.554;7.812;2023-03-14T15:05:43;11.55;;;2.38;;
78197;SDS011;67472;51.554;7.812;2023-03-14T15:08:28;16.00;;;3.28;;
78197;SDS011;67472;51.554;7.812;2023-03-14T15:11:20;18.00;;;3.58;;
78197;SDS011;67472;51.554;7.812;2023-03-14T15:14:06;14.70;;;3.03;;
78197;SDS011;67472;51.554;7.812;2023-03-14T15:16:51;10.82;;;2.45;;
78197;SDS011;67472;51.554;7.812;2023-03-14T15:19:35;11.52;;;2.25;;
78197;SDS011;67472;51.554;7.812;2023-03-14T15:22:20;11.30;;;2.80;;
78197;SDS011;67472;51.554;7.812;2023-03-14T15:25:04;10.10;;;2.13;;
78197;SDS011;67472;51.554;7.812;2023-03-14T15:27:49;7.07;;;2.10;;
78197;SDS011;67472;51.554;7.812;2023-03-14T15:30:34;14.60;;;2.08;;
78197;SDS011;67472;51.554;7.812;2023-03-14T15:33:20;8.13;;;1.83;;
78197;SDS011;67472;51.554;7.812;2023-03-14T15:39:16;10.32;;;1.83;;
78197;SDS011;67472;51.554;7.812;2023-03-14T15:42:02;6.35;;;1.65;;
78197;SDS011;67472;51.554;7.812;2023-03-14T15:44:46;12.48;;;2.20;;
78197;SDS011;67472;51.554;7.812;2023-03-14T15:47:31;10.68;;;2.10;;
78197;SDS011;67472;51.554;7.812;2023-03-14T15:50:16;11.43;;;1.90;;
78197;SDS011;67472;51.554;7.812;2023-03-14T15:53:03;4.40;;;2.22;;
78197;SDS011;67472;51.554;7.812;2023-03-14T15:55:49;9.30;;;2.35;;
78197;SDS011;67472;51.554;7.812;2023-03-14T15:58:34;10.25;;;3.00;;
78197;SDS011;67472;51.554;7.812;2023-03-14T16:01:20;13.95;;;2.50;;
78197;SDS011;67472;51.554;7.812;2023-03-14T16:04:04;6.72;;;2.10;;
78197;SDS011;67472;51.554;7.812;2023-03-14T16:06:50;4.93;;;1.88;;
78197;SDS011;67472;51.554;7.812;2023-03-14T16:09:36;5.90;;;1.55;;
78197;SDS011;67472;51.554;7.812;2023-03-14T16:12:20;6.25;;;2.88;;
78197;SDS011;67472;51.554;7.812;2023-03-14T16:15:05;8.63;;;2.10;;
78197;SDS011;67472;51.554;7.812;2023-03-14T16:17:55;9.10;;;1.67;;
78197;SDS011;67472;51.554;7.812;2023-03-14T16:20:39;5.65;;;1.63;;
78197;SDS011;67472;51.554;7.812;2023-03-14T16:23:25;6.50;;;1.77;;
78197;SDS011;67472;51.554;7.812;2023-03-14T16:26:11;8.20;;;1.65;;
78197;SDS011;67472;51.554;7.812;2023-03-14T16:28:58;8.85;;;1.67;;
78197;SDS011;67472;51.554;7.812;2023-03-14T16:31:43;5.40;;;1.45;;
78197;SDS011;67472;51.554;7.812;2023-03-14T16:34:27;3.88;;;1.13;;
78197;SDS011;67472;51.554;7.812;2023-03-14T16:37:12;8.13;;;1.70;;
78197;SDS011;67472;51.554;7.812;2023-03-14T16:39:57;4.90;;;1.52;;
78197;SDS011;67472;51.554;7.812;2023-03-14T16:42:42;7.53;;;2.05;;
78197;SDS011;67472;51.554;7.812;2023-03-14T16:45:27;3.75;;;1.50;;
78197;SDS011;67472;51.554;7.812;2023-03-14T16:48:12;4.28;;;1.60;;
78197;SDS011;67472;51.554;7.812;2023-03-14T16:50:56;7.95;;;1.77;;
78197;SDS011;67472;51.554;7.812;2023-03-14T16:53:44;5.47;;;1.85;;
78197;SDS011;67472;51.554;7.812;2023-03-14T16:56:29;8.27;;;1.90;;
78197;SDS011;67472;51.554;7.812;2023-03-14T16:59:14;9.98;;;1.80;;
78197;SDS011;67472;51.554;7.812;2023-03-14T17:01:58;8.02;;;1.55;;
78197;SDS011;67472;51.554;7.812;2023-03-14T17:04:43;8.70;;;1.70;;
78197;SDS011;67472;51.554;7.812;2023-03-14T17:07:29;3.90;;;1.73;;
78197;SDS011;67472;51.554;7.812;2023-03-14T17:10:15;8.82;;;1.85;;
78197;SDS011;67472;51.554;7.812;2023-03-14T17:13:00;11.18;;;3.15;;
78197;SDS011;67472;51.554;7.812;2023-03-14T17:15:45;4.53;;;1.90;;
78197;SDS011;67472;51.554;7.812;2023-03-14T17:18:35;4.90;;;2.30;;
78197;SDS011;67472;51.554;7.812;2023-03-14T17:21:21;6.22;;;2.08;;
78197;SDS011;67472;51.554;7.812;2023-03-14T17:24:07;6.80;;;1.90;;
78197;SDS011;67472;51.554;7.812;2023-03-14T17:26:51;8.00;;;1.88;;
78197;SDS011;67472;51.554;7.812;2023-03-14T17:29:37;9.25;;;1.88;;
78197;SDS011;67472;51.554;7.812;2023-03-14T17:32:22;6.65;;;1.70;;
78197;SDS011;67472;51.554;7.812;2023-03-14T17:35:06;5.78;;;2.15;;
78197;SDS011;67472;51.554;7.812;2023-03-14T17:37:51;7.68;;;2.00;;
78197;SDS011;67472;51.554;7.812;2023-03-14T17:40:36;8.27;;;2.38;;
78197;SDS011;67472;51.554;7.812;2023-03-14T17:43:21;4.18;;;1.92;;
78197;SDS011;67472;51.554;7.812;2023-03-14T17:46:06;7.13;;;3.00;;
78197;SDS011;67472;51.554;7.812;2023-03-14T17:48:54;6.47;;;2.15;;
78197;SDS011;67472;51.554;7.812;2023-03-14T17:51:39;6.55;;;2.25;;
78197;SDS011;67472;51.554;7.812;2023-03-14T17:54:23;9.48;;;1.85;;
78197;SDS011;67472;51.554;7.812;2023-03-14T17:57:08;7.55;;;2.35;;
78197;SDS011;67472;51.554;7.812;2023-03-14T17:59:52;7.57;;;2.00;;
78197;SDS011;67472;51.554;7.812;2023-03-14T18:02:39;8.18;;;1.73;;
78197;SDS011;67472;51.554;7.812;2023-03-14T18:05:24;6.88;;;2.15;;